Time;durP1;ratioP1;P1;durP2;ratioP2;P2;SDS_P1;SDS_P2;PMS_P1;PMS_P2;Temp;Humidity;BMP_temperature;BMP_pressure;BME280_temperature;BME280_humidity;BME280_pressure;Samples;Min_cycle;Max_cycle;Signal;HPM_P1;HPM_P2
2021/08/31 00:04:20;;;;;;;12.70;4.30;;;;;;;13.31;92.90;98170.45;234544;1207;22651;-79
2021/08/31 00:09:25;;;;;;;14.20;4.60;;;;;;;13.27;92.78;98168.95;234161;1204;22471;-81
2021/08/31 00:14:30;;;;;;;13.50;4.40;;;;;;;13.19;92.85;98173.24;233780;1208;22432;-80
2021/08/31 00:19:41;;;;;;;8.50;4.10;;;;;;;13.14;93.07;98172.20;234007;1205;24230;-79
2021/08/31 00:24:53;;;;;;;15.00;4.40;;;;;;;13.11;93.20;98170.21;234062;1208;24075;-82
2021/08/31 00:29:59;;;;;;;8.10;3.50;;;;;;;13.09;93.22;98171.36;233763;1207;22478;-79
2021/08/31 00:35:04;;;;;;;12.40;3.90;;;;;;;13.07;93.38;98170.52;234274;1208;24059;-80
2021/08/31 00:40:07;;;;;;;16.40;4.80;;;;;;;13.05;93.42;98170.29;234351;1209;22486;-80
2021/08/31 00:45:11;;;;;;;15.40;4.90;;;;;;;13.03;93.56;98168.21;235199;1209;22482;-80
2021/08/31 00:50:16;;;;;;;20.50;5.80;;;;;;;13.03;93.66;98166.05;234493;1209;24002;-80
2021/08/31 00:55:19;;;;;;;18.20;4.70;;;;;;;13.04;93.73;98166.78;234651;1199;23998;-82
2021/08/31 01:00:23;;;;;;;19.20;4.60;;;;;;;13.00;93.56;98165.21;235028;1206;24066;-82
2021/08/31 01:05:29;;;;;;;14.40;4.90;;;;;;;12.95;93.84;98162.73;234114;1206;22481;-80
2021/08/31 01:10:44;;;;;;;12.70;4.20;;;;;;;12.93;94.10;98164.45;234412;1205;22573;-79
2021/08/31 01:15:48;;;;;;;19.40;5.60;;;;;;;12.86;94.21;98165.09;234559;1205;24016;-80
2021/08/31 01:21:00;;;;;;;15.60;5.50;;;;;;;12.83;94.25;98168.59;234251;1203;22809;-81
2021/08/31 01:26:16;;;;;;;22.80;6.60;;;;;;;12.80;94.31;98168.39;235075;1206;24116;-80
2021/08/31 01:31:26;;;;;;;14.00;4.50;;;;;;;12.78;94.33;98162.30;234306;1209;24624;-81
2021/08/31 01:36:29;;;;;;;11.90;4.40;;;;;;;12.71;94.47;98161.13;233665;1205;24069;-79
2021/08/31 01:41:31;;;;;;;17.50;5.10;;;;;;;12.60;94.56;98154.45;233795;1206;24043;-79
2021/08/31 01:46:34;;;;;;;16.00;4.90;;;;;;;12.55;94.83;98145.84;233698;1207;24116;-77
2021/08/31 01:51:37;;;;;;;15.50;4.50;;;;;;;12.46;95.41;98145.87;233997;1205;25250;-80
2021/08/31 01:56:40;;;;;;;13.90;4.50;;;;;;;12.38;95.90;98139.04;233719;1209;24129;-79
2021/08/31 02:01:43;;;;;;;10.20;3.30;;;;;;;12.32;96.25;98138.27;233607;1209;24095;-78
2021/08/31 02:06:46;;;;;;;11.20;4.20;;;;;;;12.31;96.25;98129.69;233339;1208;26308;-79
2021/08/31 02:11:49;;;;;;;14.90;4.90;;;;;;;12.31;96.47;98134.67;233401;1209;25272;-78
2021/08/31 02:16:52;;;;;;;16.80;5.30;;;;;;;12.31;96.55;98126.71;233906;1209;24092;-77
2021/08/31 02:21:55;;;;;;;11.40;4.20;;;;;;;12.33;96.56;98131.07;233485;1208;24517;-79
2021/08/31 02:26:58;;;;;;;17.20;4.90;;;;;;;12.37;96.63;98128.33;234090;1198;22471;-79
2021/08/31 02:32:01;;;;;;;17.80;5.70;;;;;;;12.38;96.65;98128.13;233653;1205;22483;-78
2021/08/31 02:37:04;;;;;;;12.30;4.20;;;;;;;12.32;96.72;98124.15;233755;1209;22513;-77
2021/08/31 02:42:07;;;;;;;10.70;5.60;;;;;;;12.28;96.83;98117.90;233420;1206;26473;-79
2021/08/31 02:47:12;;;;;;;19.50;5.20;;;;;;;12.21;97.25;98116.98;233814;1205;24179;-79
2021/08/31 02:52:15;;;;;;;14.40;4.90;;;;;;;12.18;97.40;98115.42;233404;1206;24095;-79
2021/08/31 02:57:18;;;;;;;13.50;3.70;;;;;;;12.20;97.46;98113.21;234012;1203;22460;-77
2021/08/31 03:02:21;;;;;;;13.20;4.70;;;;;;;12.21;97.28;98112.13;233140;1206;22481;-81
2021/08/31 03:07:24;;;;;;;15.00;4.80;;;;;;;12.22;97.25;98114.05;233648;1209;22482;-79
2021/08/31 03:12:34;;;;;;;18.00;5.70;;;;;;;12.22;97.29;98105.96;233891;1205;22466;-77
2021/08/31 03:17:39;;;;;;;15.60;5.30;;;;;;;12.18;97.57;98107.03;233434;1205;24071;-77
2021/08/31 03:22:42;;;;;;;18.60;5.20;;;;;;;12.19;97.60;98107.45;234162;1205;22487;-79
2021/08/31 03:27:54;;;;;;;13.60;4.40;;;;;;;12.19;97.75;98105.23;233752;1212;24946;-79
2021/08/31 03:33:12;;;;;;;14.90;4.40;;;;;;;12.18;97.99;98102.04;233932;1208;22578;-77
2021/08/31 03:38:29;;;;;;;14.10;5.30;;;;;;;12.19;98.15;98105.67;233753;1205;24112;-79
2021/08/31 03:43:48;;;;;;;18.70;5.40;;;;;;;12.20;98.10;98106.92;233534;1209;23612;-77
2021/08/31 03:48:51;;;;;;;10.00;3.90;;;;;;;12.19;97.98;98105.89;233776;1205;24046;-79
2021/08/31 03:53:55;;;;;;;16.00;5.30;;;;;;;12.24;98.10;98107.19;233712;1203;24742;-77
2021/08/31 03:58:58;;;;;;;16.10;5.10;;;;;;;12.24;97.92;98104.69;233414;1205;22532;-79
2021/08/31 04:04:01;;;;;;;12.10;5.20;;;;;;;12.27;98.09;98107.95;233233;1212;24111;-79
2021/08/31 04:09:04;;;;;;;13.40;5.00;;;;;;;12.27;98.26;98112.61;233437;1206;22458;-79
2021/08/31 04:14:12;;;;;;;16.40;5.60;;;;;;;12.25;98.37;98107.09;233767;1205;24137;-80
2021/08/31 04:19:18;;;;;;;17.10;4.70;;;;;;;12.28;98.74;98108.02;233544;1205;22463;-79
2021/08/31 04:24:22;;;;;;;17.80;5.60;;;;;;;12.30;98.57;98103.92;233867;1208;24061;-79
2021/08/31 04:29:26;;;;;;;17.60;4.90;;;;;;;12.32;98.62;98108.86;233952;1205;22463;-79
2021/08/31 04:34:28;;;;;;;19.00;5.70;;;;;;;12.35;98.63;98106.46;233858;1203;22462;-78
2021/08/31 04:39:31;;;;;;;17.00;5.80;;;;;;;12.38;98.70;98107.54;233728;1209;24182;-79
2021/08/31 04:44:35;;;;;;;17.00;4.90;;;;;;;12.41;98.81;98106.89;233792;1209;25294;-79
2021/08/31 04:49:38;;;;;;;14.20;5.40;;;;;;;12.44;98.70;98104.55;233951;1206;25174;-78
2021/08/31 04:54:41;;;;;;;22.90;6.00;;;;;;;12.46;98.73;98102.06;233569;1209;24074;-78
2021/08/31 04:59:51;;;;;;;17.70;5.00;;;;;;;12.51;98.84;98099.85;233696;1200;25253;-79
2021/08/31 05:05:10;;;;;;;17.40;5.30;;;;;;;12.55;98.90;98099.98;233619;1206;22913;-79
2021/08/31 05:10:26;;;;;;;21.70;5.30;;;;;;;12.65;99.12;98098.25;233724;1208;22469;-79
2021/08/31 05:15:32;;;;;;;16.40;5.30;;;;;;;12.78;99.16;98094.56;234241;1204;24113;-79
2021/08/31 05:20:34;;;;;;;17.90;5.50;;;;;;;12.84;98.88;98094.21;234746;1205;22773;-79
2021/08/31 05:25:50;;;;;;;14.00;4.20;;;;;;;12.89;98.81;98091.86;233904;1204;22477;-78
2021/08/31 05:30:53;;;;;;;14.00;5.00;;;;;;;12.93;98.71;98094.80;233897;1207;24950;-78
2021/08/31 05:35:56;;;;;;;20.30;5.10;;;;;;;12.97;98.64;98097.91;233472;1205;22707;-80
2021/08/31 05:40:58;;;;;;;23.00;5.20;;;;;;;13.05;98.82;98096.38;234247;1199;22458;-78
2021/08/31 05:46:01;;;;;;;14.40;4.90;;;;;;;13.18;99.01;98099.58;234313;1206;22561;-79
2021/08/31 05:51:07;;;;;;;11.30;3.50;;;;;;;13.39;99.19;98102.59;233760;1207;24928;-81
2021/08/31 05:56:10;;;;;;;15.20;4.50;;;;;;;13.53;98.55;98101.88;234014;1204;23633;-78
2021/08/31 06:01:12;;;;;;;12.90;3.80;;;;;;;13.51;97.75;98105.56;234758;1204;22503;-80
2021/08/31 06:06:17;;;;;;;9.10;3.10;;;;;;;13.49;97.76;98103.77;234805;1205;24323;-80
2021/08/31 06:11:21;;;;;;;4.50;1.70;;;;;;;13.45;97.89;98104.27;234236;1204;24061;-78
2021/08/31 06:16:25;;;;;;;3.00;1.60;;;;;;;13.41;97.60;98100.54;234206;1204;22467;-80
2021/08/31 06:21:29;;;;;;;3.40;2.00;;;;;;;13.37;97.75;98101.85;234402;1204;22474;-79
2021/08/31 06:26:32;;;;;;;4.00;1.50;;;;;;;13.45;98.28;98105.62;234598;1204;22523;-80
2021/08/31 06:31:35;;;;;;;2.60;1.10;;;;;;;13.56;98.69;98104.20;234719;1204;25078;-80
2021/08/31 06:36:39;;;;;;;2.50;1.10;;;;;;;13.64;98.94;98108.73;234127;1206;25224;-77
2021/08/31 06:41:42;;;;;;;3.90;1.30;;;;;;;13.66;98.21;98108.47;234357;1204;22445;-80
2021/08/31 06:46:48;;;;;;;4.70;1.40;;;;;;;13.62;97.78;98102.31;234330;1206;22586;-80
2021/08/31 06:51:50;;;;;;;4.40;1.60;;;;;;;13.66;98.72;98101.15;234311;1208;22470;-80
2021/08/31 06:57:06;;;;;;;3.00;1.10;;;;;;;13.84;99.27;98100.52;234825;1204;22458;-81
2021/08/31 07:02:37;;;;;;;3.40;1.40;;;;;;;13.96;98.90;98100.86;236006;1204;23005;-80
2021/08/31 07:07:54;;;;;;;4.20;1.30;;;;;;;14.06;99.17;98103.44;234793;1204;22461;-79
2021/08/31 07:12:58;;;;;;;3.00;1.20;;;;;;;14.17;99.29;98111.31;235308;1211;22451;-79
2021/08/31 07:18:03;;;;;;;6.60;2.40;;;;;;;14.24;98.92;98113.39;234476;1204;24503;-79
2021/08/31 07:23:07;;;;;;;5.70;2.40;;;;;;;14.25;98.86;98117.51;234783;1199;22446;-80
2021/08/31 07:28:16;;;;;;;4.50;2.00;;;;;;;14.27;99.12;98119.20;234795;1206;25734;-80
2021/08/31 07:33:19;;;;;;;10.20;2.70;;;;;;;14.35;99.38;98125.27;234617;1205;24096;-79
2021/08/31 07:38:22;;;;;;;9.90;2.90;;;;;;;14.48;99.60;98132.28;234566;1207;22445;-78
2021/08/31 07:43:25;;;;;;;7.90;2.20;;;;;;;14.57;99.18;98133.14;233990;1204;22474;-81
2021/08/31 07:48:29;;;;;;;5.20;1.80;;;;;;;14.61;99.23;98134.45;234311;1207;22490;-80
2021/08/31 07:53:32;;;;;;;6.50;1.80;;;;;;;14.65;99.29;98137.09;235209;1198;22582;-79
2021/08/31 07:58:35;;;;;;;3.70;1.50;;;;;;;14.68;99.15;98146.52;234162;1199;23759;-80
2021/08/31 08:03:37;;;;;;;3.90;2.10;;;;;;;14.66;98.90;98143.04;233815;1204;24070;-81
2021/08/31 08:08:40;;;;;;;3.70;1.90;;;;;;;14.68;99.27;98136.95;233776;1205;24096;-78
2021/08/31 08:13:42;;;;;;;2.40;1.40;;;;;;;14.75;99.49;98138.49;233803;1206;22446;-80
2021/08/31 08:18:51;;;;;;;4.20;1.80;;;;;;;14.88;99.84;98144.44;234638;1206;25340;-81
2021/08/31 08:23:54;;;;;;;5.90;2.20;;;;;;;15.05;99.97;98150.11;234276;1204;25456;-83
2021/08/31 08:29:10;;;;;;;2.00;1.20;;;;;;;15.16;99.75;98148.30;233915;1204;24066;-80
2021/08/31 08:34:30;;;;;;;2.60;0.70;;;;;;;15.16;98.81;98149.48;234572;1196;24010;-79
2021/08/31 08:39:34;;;;;;;1.30;0.80;;;;;;;15.19;98.89;98155.05;233823;1205;22843;-79
2021/08/31 08:44:37;;;;;;;1.10;0.80;;;;;;;15.34;99.27;98163.02;234108;1204;22857;-79
2021/08/31 08:49:39;;;;;;;2.30;1.10;;;;;;;15.36;98.42;98168.95;234155;1204;22488;-79
2021/08/31 08:54:43;;;;;;;0.40;0.40;;;;;;;15.23;98.09;98170.14;235025;1205;25395;-80
2021/08/31 09:00:20;;;;;;;2.00;0.90;;;;;;;15.21;98.55;98162.81;234304;1204;24262;-79
2021/08/31 09:05:42;;;;;;;3.10;1.20;;;;;;;15.37;99.67;98163.64;233789;1205;22467;-80
2021/08/31 09:10:45;;;;;;;5.00;1.30;;;;;;;15.61;99.69;98169.05;234145;1204;24095;-80
2021/08/31 09:15:50;;;;;;;5.20;1.20;;;;;;;15.77;99.28;98170.06;234312;1205;22490;-79
2021/08/31 09:21:02;;;;;;;4.10;1.80;;;;;;;15.87;98.65;98169.52;234515;1204;26295;-80
2021/08/31 09:26:12;;;;;;;5.90;2.40;;;;;;;15.89;98.63;98164.58;234256;1206;22474;-79
2021/08/31 09:31:21;;;;;;;6.90;2.10;;;;;;;16.05;98.98;98168.46;234102;1203;25089;-80
2021/08/31 09:36:26;;;;;;;6.50;2.20;;;;;;;16.27;98.45;98165.40;234149;1200;22582;-81
2021/08/31 09:41:39;;;;;;;4.70;1.90;;;;;;;16.31;97.57;98164.82;234236;1204;24007;-78
2021/08/31 09:47:06;;;;;;;5.00;1.60;;;;;;;16.19;96.52;98152.89;234161;1204;24048;-79
2021/08/31 09:52:22;;;;;;;9.00;2.30;;;;;;;16.08;96.94;98157.88;234545;1204;22463;-80
2021/08/31 09:57:45;;;;;;;7.50;2.50;;;;;;;16.05;97.14;98158.42;234039;1204;25236;-79
2021/08/31 10:02:49;;;;;;;6.30;2.70;;;;;;;16.05;97.48;98155.66;234377;1204;24081;-78
2021/08/31 10:07:52;;;;;;;3.30;1.60;;;;;;;16.26;98.11;98151.92;233769;1204;24054;-78
2021/08/31 10:12:57;;;;;;;7.50;2.70;;;;;;;16.46;97.92;98155.00;233840;1204;22458;-79
2021/08/31 10:18:03;;;;;;;5.00;2.40;;;;;;;16.58;97.28;98157.95;233981;1204;24037;-80
2021/08/31 10:23:07;;;;;;;4.80;2.20;;;;;;;16.69;97.09;98171.64;233785;1204;24061;-80
2021/08/31 10:28:27;;;;;;;5.60;2.20;;;;;;;16.76;96.64;98175.15;234602;1197;24045;-81
2021/08/31 10:33:38;;;;;;;8.50;3.00;;;;;;;16.79;96.05;98168.27;233656;1206;22531;-78
2021/08/31 10:38:49;;;;;;;;;;;;;;;16.73;95.83;98179.71;233869;1205;24160;-80
2021/08/31 10:43:54;;;;;;;10.40;3.20;;;;;;;16.76;96.05;98178.00;233928;1200;24050;-78
2021/08/31 10:49:02;;;;;;;8.60;2.80;;;;;;;16.82;95.90;98187.84;234089;1204;24058;-80
2021/08/31 10:54:06;;;;;;;7.80;3.20;;;;;;;16.92;95.74;98188.72;234076;1204;22512;-80
2021/08/31 10:59:32;;;;;;;12.90;4.20;;;;;;;16.97;95.53;98189.66;233945;1204;24218;-80
2021/08/31 11:04:36;;;;;;;8.90;3.10;;;;;;;16.73;95.14;98190.76;234577;1204;22576;-81
2021/08/31 11:09:44;;;;;;;7.70;3.10;;;;;;;16.42;95.36;98189.17;234736;1205;22486;-79
2021/08/31 11:14:53;;;;;;;8.40;2.60;;;;;;;16.23;95.90;98191.93;233827;1205;22458;-79
2021/08/31 11:20:24;;;;;;;7.20;3.00;;;;;;;16.15;96.38;98190.36;233590;1205;22468;-78
2021/08/31 11:25:32;;;;;;;7.20;2.60;;;;;;;16.12;96.61;98187.73;233648;1199;22454;-79
2021/08/31 11:30:48;;;;;;;11.30;3.90;;;;;;;16.06;96.31;98175.90;233693;1204;22464;-79
2021/08/31 11:36:04;;;;;;;8.60;2.90;;;;;;;15.95;96.18;98176.23;233376;1200;22840;-78
2021/08/31 11:41:21;;;;;;;6.00;3.10;;;;;;;15.84;96.45;98169.83;233537;1206;22464;-79
2021/08/31 11:46:33;;;;;;;5.20;2.20;;;;;;;15.91;97.39;98176.95;233473;1204;22770;-77
2021/08/31 11:51:56;;;;;;;7.60;2.50;;;;;;;16.17;98.14;98168.20;233883;1197;22502;-78
2021/08/31 11:57:02;;;;;;;5.60;2.60;;;;;;;16.38;98.17;98173.52;233751;1204;24060;-78
2021/08/31 12:02:24;;;;;;;8.80;3.60;;;;;;;16.48;97.70;98173.75;233842;1207;22498;-78
2021/08/31 12:07:49;;;;;;;8.80;3.10;;;;;;;16.66;97.78;98183.30;233681;1204;22461;-82
2021/08/31 12:12:52;;;;;;;6.40;2.70;;;;;;;16.63;96.72;98187.45;234225;1205;25089;-79
2021/08/31 12:18:05;;;;;;;4.80;2.10;;;;;;;16.48;96.51;98169.48;233841;1206;24085;-79
2021/08/31 12:23:10;;;;;;;4.30;2.20;;;;;;;16.32;96.47;98169.80;234089;1200;24189;-80
2021/08/31 12:28:13;;;;;;;3.50;2.00;;;;;;;16.21;96.76;98169.16;233746;1206;25738;-80
2021/08/31 12:33:43;;;;;;;4.40;1.40;;;;;;;16.23;97.21;98181.43;233820;1205;25109;-79
2021/08/31 12:38:47;;;;;;;2.90;1.80;;;;;;;16.32;97.30;98191.40;234020;1209;22474;-81
2021/08/31 12:43:53;;;;;;;6.00;2.00;;;;;;;16.40;97.22;98197.98;234038;1206;24039;-80
2021/08/31 12:49:08;;;;;;;3.20;1.50;;;;;;;16.34;96.91;98194.19;233550;1204;22879;-79
2021/08/31 12:54:22;;;;;;;5.80;2.10;;;;;;;16.24;97.08;98189.64;233845;1204;23236;-79
2021/08/31 12:59:37;;;;;;;3.90;1.60;;;;;;;16.22;97.42;98188.44;233649;1197;25239;-77
2021/08/31 13:04:42;;;;;;;3.30;1.40;;;;;;;16.16;97.35;98183.00;233064;1207;24153;-80
2021/08/31 13:09:47;;;;;;;2.10;1.20;;;;;;;16.06;97.34;98180.69;233060;1207;24118;-77
2021/08/31 13:14:49;;;;;;;2.40;1.10;;;;;;;15.96;97.42;98173.59;233183;1198;24075;-76
2021/08/31 13:19:53;;;;;;;1.60;0.80;;;;;;;16.01;98.29;98167.16;233526;1204;24011;-78
2021/08/31 13:24:56;;;;;;;2.50;0.90;;;;;;;16.10;98.33;98166.29;233344;1204;22827;-81
2021/08/31 13:29:59;;;;;;;2.00;1.10;;;;;;;16.04;97.90;98169.19;233582;1204;24105;-77
2021/08/31 13:35:01;;;;;;;2.50;1.00;;;;;;;15.96;97.80;98169.41;233368;1204;24077;-77
2021/08/31 13:40:05;;;;;;;2.40;0.80;;;;;;;15.86;97.85;98177.13;233361;1205;24212;-77
2021/08/31 13:45:09;;;;;;;1.60;0.70;;;;;;;15.70;97.74;98170.33;233299;1205;24077;-77
2021/08/31 13:50:12;;;;;;;1.60;0.60;;;;;;;15.52;97.97;98178.42;233479;1204;23676;-78
2021/08/31 13:55:14;;;;;;;1.20;0.80;;;;;;;15.36;98.15;98179.30;233659;1198;26434;-80
2021/08/31 14:00:30;;;;;;;0.90;0.60;;;;;;;15.26;98.47;98182.64;233392;1204;24102;-76
2021/08/31 14:05:53;;;;;;;0.80;0.70;;;;;;;15.16;98.74;98188.64;233387;1205;22477;-75
2021/08/31 14:10:56;;;;;;;1.90;0.80;;;;;;;15.08;99.01;98193.35;234599;1204;24081;-75
2021/08/31 14:16:12;;;;;;;1.50;0.60;;;;;;;15.00;99.18;98202.10;233448;1204;25204;-76
2021/08/31 14:21:37;;;;;;;3.50;1.20;;;;;;;14.95;99.75;98202.39;233713;1206;25222;-77
2021/08/31 14:26:39;;;;;;;3.10;1.10;;;;;;;14.92;99.86;98203.18;233553;1204;23315;-76
2021/08/31 14:31:42;;;;;;;1.50;1.10;;;;;;;14.88;100.00;98204.77;233065;1205;24013;-76
2021/08/31 14:36:47;;;;;;;2.50;1.00;;;;;;;14.82;100.00;98205.83;232903;1204;24236;-76
2021/08/31 14:41:49;;;;;;;3.00;1.40;;;;;;;14.79;100.00;98210.13;233099;1198;24797;-76
2021/08/31 14:46:52;;;;;;;4.10;1.10;;;;;;;14.78;100.00;98211.95;233493;1204;24070;-76
2021/08/31 14:51:55;;;;;;;3.30;1.70;;;;;;;14.76;100.00;98215.79;233207;1205;25517;-76
2021/08/31 14:56:58;;;;;;;2.00;1.30;;;;;;;14.75;100.00;98211.13;233407;1204;24171;-76
2021/08/31 15:02:00;;;;;;;2.00;0.90;;;;;;;14.75;100.00;98211.69;233509;1204;24017;-76
2021/08/31 15:07:03;;;;;;;1.60;1.20;;;;;;;14.74;100.00;98212.12;233384;1204;22621;-77
2021/08/31 15:12:06;;;;;;;1.50;0.80;;;;;;;14.72;100.00;98219.42;233483;1207;22554;-75
2021/08/31 15:17:10;;;;;;;2.20;0.70;;;;;;;14.68;100.00;98226.54;233146;1206;24085;-76
2021/08/31 15:22:12;;;;;;;1.10;0.60;;;;;;;14.63;100.00;98221.64;232807;1201;22915;-75
2021/08/31 15:27:18;;;;;;;2.30;1.20;;;;;;;14.61;100.00;98224.55;232805;1206;22487;-76
2021/08/31 15:32:20;;;;;;;2.80;1.40;;;;;;;14.59;100.00;98222.92;232876;1204;24058;-76
2021/08/31 15:37:23;;;;;;;2.50;1.20;;;;;;;14.51;100.00;98231.02;232970;1204;22478;-76
2021/08/31 15:42:26;;;;;;;3.40;1.20;;;;;;;14.46;100.00;98234.48;232824;1207;22469;-76
2021/08/31 15:47:29;;;;;;;5.40;1.40;;;;;;;14.41;100.00;98232.04;232998;1205;24063;-75
2021/08/31 15:52:32;;;;;;;2.70;1.60;;;;;;;14.39;100.00;98236.27;233135;1199;24154;-76
2021/08/31 15:57:36;;;;;;;2.60;1.40;;;;;;;14.32;100.00;98236.00;232914;1206;24058;-75
2021/08/31 16:02:40;;;;;;;2.40;1.30;;;;;;;14.24;100.00;98237.77;233135;1207;22502;-75
2021/08/31 16:07:43;;;;;;;3.20;1.10;;;;;;;14.21;100.00;98236.34;233000;1205;24614;-72
2021/08/31 16:12:45;;;;;;;1.90;1.40;;;;;;;14.19;100.00;98247.21;233127;1201;24106;-75
2021/08/31 16:17:50;;;;;;;2.80;1.50;;;;;;;14.17;100.00;98251.51;233089;1205;24084;-74
2021/08/31 16:22:53;;;;;;;2.00;1.20;;;;;;;14.13;100.00;98253.65;232869;1212;25352;-73
2021/08/31 16:27:56;;;;;;;1.50;1.20;;;;;;;14.09;100.00;98253.81;233434;1205;25279;-73
2021/08/31 16:33:01;;;;;;;3.40;1.20;;;;;;;14.02;100.00;98258.26;233003;1204;25117;-77
2021/08/31 16:38:05;;;;;;;3.70;1.70;;;;;;;13.92;100.00;98260.36;233041;1205;22582;-75
2021/08/31 16:43:08;;;;;;;2.50;2.10;;;;;;;13.82;100.00;98261.43;233153;1208;22455;-74
2021/08/31 16:48:11;;;;;;;1.80;1.10;;;;;;;13.74;100.00;98265.58;232894;1207;24106;-75
2021/08/31 16:53:13;;;;;;;3.30;1.30;;;;;;;13.70;100.00;98269.61;233027;1203;24081;-75
2021/08/31 16:58:16;;;;;;;3.10;1.40;;;;;;;13.69;100.00;98272.75;232958;1205;24045;-75
2021/08/31 17:03:19;;;;;;;2.20;1.50;;;;;;;13.67;100.00;98271.73;233236;1203;24048;-73
2021/08/31 17:08:22;;;;;;;2.60;1.40;;;;;;;13.66;100.00;98275.78;232921;1205;24015;-76
2021/08/31 17:13:28;;;;;;;3.90;1.60;;;;;;;13.63;100.00;98277.05;232882;1207;25180;-75
2021/08/31 17:18:38;;;;;;;4.00;1.50;;;;;;;13.60;100.00;98281.14;232951;1207;24065;-74
2021/08/31 17:23:50;;;;;;;4.00;1.80;;;;;;;13.56;100.00;98288.50;233051;1200;24320;-74
2021/08/31 17:29:13;;;;;;;4.50;1.90;;;;;;;13.55;100.00;98299.14;232988;1209;22437;-75
2021/08/31 17:34:16;;;;;;;2.30;1.50;;;;;;;13.51;100.00;98297.45;233101;1205;25335;-74
2021/08/31 17:39:19;;;;;;;2.10;1.20;;;;;;;13.48;100.00;98312.63;233456;1205;24074;-75
2021/08/31 17:44:21;;;;;;;2.70;1.50;;;;;;;13.47;100.00;98316.59;233691;1204;24604;-75
2021/08/31 17:49:24;;;;;;;4.30;1.30;;;;;;;13.46;100.00;98328.77;233253;1204;25256;-76
2021/08/31 17:54:27;;;;;;;3.20;1.50;;;;;;;13.46;100.00;98327.38;233010;1208;24276;-72
2021/08/31 17:59:29;;;;;;;3.70;2.00;;;;;;;13.46;100.00;98340.30;233060;1209;24402;-73
2021/08/31 18:04:31;;;;;;;3.80;2.20;;;;;;;13.47;100.00;98345.98;233441;1203;22445;-75
2021/08/31 18:09:34;;;;;;;5.00;2.20;;;;;;;13.46;100.00;98348.52;233395;1208;22770;-76
2021/08/31 18:14:45;;;;;;;6.60;2.40;;;;;;;13.48;100.00;98360.20;233169;1208;24058;-75
2021/08/31 18:20:05;;;;;;;3.00;1.70;;;;;;;13.48;100.00;98369.73;233035;1203;24141;-75
2021/08/31 18:25:08;;;;;;;3.70;1.90;;;;;;;13.47;100.00;98375.39;233198;1209;24393;-73
2021/08/31 18:30:12;;;;;;;3.90;1.90;;;;;;;13.48;100.00;98382.59;233511;1203;24189;-75
2021/08/31 18:35:14;;;;;;;6.00;2.30;;;;;;;13.49;100.00;98389.30;233734;1209;24183;-75
2021/08/31 18:40:17;;;;;;;5.70;1.90;;;;;;;13.49;100.00;98400.23;233199;1203;25442;-75
2021/08/31 18:45:20;;;;;;;6.30;2.00;;;;;;;13.52;100.00;98410.21;233160;1206;24068;-74
2021/08/31 18:50:38;;;;;;;5.50;2.80;;;;;;;13.53;100.00;98413.01;233329;1206;22466;-75
2021/08/31 18:56:01;;;;;;;4.50;1.60;;;;;;;13.54;100.00;98413.10;233345;1202;25201;-74
2021/08/31 19:01:04;;;;;;;6.40;2.70;;;;;;;13.53;100.00;98421.92;233456;1206;24354;-73
2021/08/31 19:06:07;;;;;;;7.70;3.00;;;;;;;13.52;100.00;98423.91;233633;1209;24059;-75
2021/08/31 19:11:18;;;;;;;5.20;2.80;;;;;;;13.51;100.00;98427.48;233533;1205;25277;-72
2021/08/31 19:16:21;;;;;;;4.50;1.70;;;;;;;13.50;100.00;98429.17;233461;1205;24059;-73
2021/08/31 19:21:25;;;;;;;4.60;2.00;;;;;;;13.48;100.00;98436.61;233397;1209;25978;-75
2021/08/31 19:26:28;;;;;;;5.30;2.20;;;;;;;13.47;100.00;98438.52;233510;1205;24088;-74
2021/08/31 19:31:30;;;;;;;8.70;2.70;;;;;;;13.43;100.00;98440.41;233493;1198;24836;-74
2021/08/31 19:36:34;;;;;;;7.60;2.80;;;;;;;13.38;100.00;98446.61;233439;1205;24019;-73
2021/08/31 19:41:38;;;;;;;6.00;2.80;;;;;;;13.33;100.00;98447.24;233276;1205;22834;-76
2021/08/31 19:46:42;;;;;;;5.60;2.70;;;;;;;13.31;100.00;98448.34;233184;1205;22481;-74
2021/08/31 19:51:45;;;;;;;7.90;3.50;;;;;;;13.28;100.00;98451.91;233556;1205;24074;-74
2021/08/31 19:57:04;;;;;;;5.80;2.60;;;;;;;13.26;100.00;98457.64;233122;1205;24097;-76
2021/08/31 20:02:08;;;;;;;5.70;2.20;;;;;;;13.25;100.00;98462.20;233458;1205;22536;-75
2021/08/31 20:07:11;;;;;;;9.00;2.70;;;;;;;13.23;100.00;98468.89;233085;1205;22466;-75
2021/08/31 20:12:26;;;;;;;7.30;2.90;;;;;;;13.21;100.00;98470.40;233373;1205;24080;-75
2021/08/31 20:17:30;;;;;;;8.60;3.70;;;;;;;13.21;100.00;98481.29;233205;1205;22466;-76
2021/08/31 20:22:32;;;;;;;7.90;3.10;;;;;;;13.20;100.00;98490.73;233476;1209;24095;-75
2021/08/31 20:27:35;;;;;;;10.60;3.80;;;;;;;13.18;100.00;98496.47;233285;1205;24158;-76
2021/08/31 20:32:37;;;;;;;10.60;3.70;;;;;;;13.17;100.00;98503.21;233304;1205;24282;-75
2021/08/31 20:37:41;;;;;;;9.00;3.50;;;;;;;13.14;100.00;98504.54;233056;1206;25018;-75
2021/08/31 20:42:45;;;;;;;10.00;4.20;;;;;;;13.15;100.00;98514.19;232994;1209;24058;-75
2021/08/31 20:47:48;;;;;;;8.10;4.20;;;;;;;13.17;100.00;98524.64;233107;1205;24201;-75
2021/08/31 20:52:50;;;;;;;7.30;3.60;;;;;;;13.19;100.00;98531.80;233263;1205;25097;-75
2021/08/31 20:57:53;;;;;;;11.20;4.20;;;;;;;13.18;100.00;98538.52;233475;1205;22467;-75
2021/08/31 21:03:08;;;;;;;6.50;3.90;;;;;;;13.16;100.00;98545.42;233629;1205;24202;-75
2021/08/31 21:08:31;;;;;;;10.00;3.60;;;;;;;13.13;100.00;98550.55;233249;1208;22465;-74
2021/08/31 21:13:34;;;;;;;6.50;2.60;;;;;;;13.11;100.00;98549.33;233235;1203;24726;-75
2021/08/31 21:18:38;;;;;;;8.80;3.50;;;;;;;13.10;100.00;98557.52;233416;1209;22491;-76
2021/08/31 21:23:40;;;;;;;10.00;3.80;;;;;;;13.12;100.00;98564.45;233582;1203;24028;-75
2021/08/31 21:28:43;;;;;;;14.10;4.10;;;;;;;13.16;100.00;98563.08;233184;1209;24019;-75
2021/08/31 21:33:46;;;;;;;8.40;4.50;;;;;;;13.18;100.00;98571.16;233307;1205;22480;-73
2021/08/31 21:38:49;;;;;;;15.20;5.30;;;;;;;13.17;100.00;98577.67;233193;1205;25349;-76
2021/08/31 21:43:51;;;;;;;15.10;5.20;;;;;;;13.15;100.00;98582.24;233294;1205;22502;-73
2021/08/31 21:49:04;;;;;;;10.10;4.80;;;;;;;13.10;100.00;98588.52;233252;1206;22570;-75
2021/08/31 21:54:17;;;;;;;12.50;4.90;;;;;;;13.04;100.00;98587.60;233385;1206;22454;-72
2021/08/31 21:59:35;;;;;;;9.40;4.20;;;;;;;12.97;100.00;98587.92;233448;1209;25462;-77
2021/08/31 22:04:37;;;;;;;13.30;5.10;;;;;;;12.94;100.00;98589.98;233377;1200;24007;-76
2021/08/31 22:09:40;;;;;;;14.00;4.80;;;;;;;12.92;100.00;98589.09;233696;1211;25334;-76
2021/08/31 22:14:44;;;;;;;13.10;4.90;;;;;;;12.90;100.00;98591.77;233084;1206;22450;-73
2021/08/31 22:19:48;;;;;;;11.20;4.30;;;;;;;12.90;100.00;98597.04;233441;1206;25454;-75
2021/08/31 22:25:00;;;;;;;9.20;4.30;;;;;;;12.90;100.00;98596.77;233578;1205;24151;-73
2021/08/31 22:30:07;;;;;;;8.00;4.30;;;;;;;12.91;100.00;98604.03;233809;1204;24064;-75
2021/08/31 22:35:11;;;;;;;9.60;4.00;;;;;;;12.91;100.00;98607.73;233174;1205;25206;-74
2021/08/31 22:40:14;;;;;;;15.40;4.90;;;;;;;12.94;100.00;98602.85;233671;1205;24109;-75
2021/08/31 22:45:16;;;;;;;12.00;4.80;;;;;;;12.94;100.00;98613.02;233355;1205;24062;-75
2021/08/31 22:50:27;;;;;;;11.70;4.60;;;;;;;12.94;100.00;98613.40;233631;1205;24193;-76
2021/08/31 22:55:36;;;;;;;9.70;4.30;;;;;;;12.92;100.00;98615.85;233183;1205;22959;-74
2021/08/31 23:00:41;;;;;;;9.40;3.90;;;;;;;12.92;100.00;98616.17;233789;1208;22522;-75
2021/08/31 23:05:44;;;;;;;19.10;5.90;;;;;;;12.93;100.00;98616.59;233569;1205;24147;-74
2021/08/31 23:10:48;;;;;;;11.50;3.90;;;;;;;12.93;100.00;98618.42;233713;1204;24070;-72
2021/08/31 23:15:59;;;;;;;7.70;3.60;;;;;;;12.92;100.00;98622.31;233327;1206;24074;-74
2021/08/31 23:21:10;;;;;;;6.10;3.30;;;;;;;12.91;100.00;98619.70;233132;1198;24102;-74
2021/08/31 23:26:25;;;;;;;8.60;3.90;;;;;;;12.89;100.00;98620.51;233144;1209;24080;-75
2021/08/31 23:31:28;;;;;;;10.30;4.00;;;;;;;12.85;100.00;98631.72;233456;1204;24258;-74
2021/08/31 23:36:32;;;;;;;8.70;4.00;;;;;;;12.84;100.00;98630.57;233174;1205;24061;-74